createdAt,value
2022-10-22T00:00:45.231Z,98327.00
2022-10-22T00:03:32.905Z,98327.00
2022-10-22T00:06:20.366Z,98317.00
2022-10-22T00:09:07.880Z,98320.00
2022-10-22T00:11:55.647Z,98314.00
2022-10-22T00:14:43.940Z,98325.00
2022-10-22T00:17:31.542Z,98322.00
2022-10-22T00:20:19.512Z,98321.00
2022-10-22T00:23:07.011Z,98319.00
2022-10-22T00:25:55.143Z,98330.00
2022-10-22T00:28:42.594Z,98321.00
2022-10-22T00:31:30.076Z,98319.00
2022-10-22T00:34:22.391Z,98314.00
2022-10-22T00:37:09.970Z,98330.00
2022-10-22T00:39:57.410Z,98334.00
2022-10-22T00:42:45.041Z,98335.00
2022-10-22T00:45:32.641Z,98323.00
2022-10-22T00:48:31.558Z,98324.00
2022-10-22T00:51:22.231Z,98316.00
2022-10-22T00:54:10.075Z,98326.00
2022-10-22T00:56:57.543Z,98316.00
2022-10-22T00:59:45.700Z,98320.00
2022-10-22T01:02:33.520Z,98308.00
2022-10-22T01:05:21.901Z,98309.00
2022-10-22T01:08:25.981Z,98307.00
2022-10-22T01:12:18.656Z,98296.00
2022-10-22T01:15:45.710Z,98300.00
2022-10-22T01:19:06.622Z,98295.00
2022-10-22T01:22:21.114Z,98281.00
2022-10-22T01:25:31.657Z,98273.00
2022-10-22T01:29:15.940Z,98272.00
2022-10-22T01:32:11.978Z,98272.00
2022-10-22T01:35:11.320Z,98264.00
2022-10-22T01:38:04.800Z,98257.00
2022-10-22T01:40:53.575Z,98249.00
2022-10-22T01:43:41.177Z,98249.00
2022-10-22T01:46:29.948Z,98249.00
2022-10-22T01:49:31.185Z,98260.00
2022-10-22T01:52:29.207Z,98255.00
2022-10-22T01:55:51.401Z,98270.00
2022-10-22T01:59:28.965Z,98282.00
2022-10-22T02:02:55.599Z,98290.00
2022-10-22T02:05:59.636Z,98290.00
2022-10-22T02:08:49.850Z,98285.00
2022-10-22T02:11:38.387Z,98282.00
2022-10-22T02:14:29.495Z,98263.00
2022-10-22T02:17:22.751Z,98251.00
2022-10-22T02:20:29.090Z,98251.00
2022-10-22T02:23:17.135Z,98234.00
2022-10-22T02:26:32.642Z,98216.00
2022-10-22T02:29:52.180Z,98224.00
2022-10-22T02:32:51.741Z,98233.00
2022-10-22T02:35:42.795Z,98222.00
2022-10-22T02:38:32.765Z,98212.00
2022-10-22T02:41:20.496Z,98227.00
2022-10-22T02:44:11.230Z,98252.00
2022-10-22T02:46:59.732Z,98251.00
2022-10-22T02:49:47.360Z,98252.00
2022-10-22T02:52:35.201Z,98256.00
2022-10-22T02:55:23.020Z,98254.00
2022-10-22T02:58:11.221Z,98271.00
2022-10-22T03:00:58.687Z,98280.00
2022-10-22T03:03:46.295Z,98291.00
2022-10-22T03:06:34.054Z,98293.00
2022-10-22T03:09:24.129Z,98293.00
2022-10-22T03:12:12.422Z,98293.00
2022-10-22T03:14:59.920Z,98285.00
2022-10-22T03:17:47.362Z,98292.00
2022-10-22T03:20:35.291Z,98304.00
2022-10-22T03:23:22.692Z,98306.00
2022-10-22T03:26:13.613Z,98308.00
2022-10-22T03:29:01.781Z,98298.00
2022-10-22T03:31:49.235Z,98308.00
2022-10-22T03:34:37.056Z,98317.00
2022-10-22T03:37:27.191Z,98311.00
2022-10-22T03:40:15.380Z,98335.00
2022-10-22T03:43:02.850Z,98329.00
2022-10-22T03:45:50.351Z,98316.00
2022-10-22T03:48:37.781Z,98319.00
2022-10-22T03:51:28.588Z,98323.00
2022-10-22T03:54:17.238Z,98334.00
2022-10-22T03:57:07.055Z,98362.00
2022-10-22T03:59:54.461Z,98376.00
2022-10-22T04:02:41.952Z,98379.00
2022-10-22T04:05:29.360Z,98387.00
2022-10-22T04:08:16.812Z,98391.00
2022-10-22T04:11:04.425Z,98391.00
2022-10-22T04:13:51.947Z,98390.00
2022-10-22T04:16:42.915Z,98388.00
2022-10-22T04:19:30.386Z,98393.00
2022-10-22T04:22:17.806Z,98392.00
2022-10-22T04:25:06.151Z,98404.00
2022-10-22T04:27:53.595Z,98403.00
2022-10-22T04:30:41.090Z,98403.00
2022-10-22T04:33:28.511Z,98401.00
2022-10-22T04:36:19.176Z,98394.00
2022-10-22T04:39:07.010Z,98377.00
2022-10-22T04:41:54.591Z,98392.00
2022-10-22T04:44:42.220Z,98407.00
2022-10-22T04:47:29.721Z,98439.00
2022-10-22T04:50:17.460Z,98458.00
2022-10-22T04:53:04.961Z,98466.00
2022-10-22T04:55:52.371Z,98465.00
2022-10-22T04:58:41.069Z,98465.00
2022-10-22T05:01:41.796Z,98465.00
2022-10-22T05:04:30.575Z,98456.00
2022-10-22T05:07:18.020Z,98473.00
2022-10-22T05:10:06.066Z,98462.00
2022-10-22T05:12:53.571Z,98467.00
2022-10-22T05:15:41.052Z,98471.00
2022-10-22T05:18:28.575Z,98467.00
2022-10-22T05:21:21.090Z,98467.00
2022-10-22T05:24:08.961Z,98466.00
2022-10-22T05:26:59.630Z,98462.00
2022-10-22T05:29:47.133Z,98461.00
2022-10-22T05:32:35.974Z,98466.00
2022-10-22T05:35:23.372Z,98466.00
2022-10-22T05:38:10.923Z,98471.00
2022-10-22T05:41:11.320Z,98469.00
2022-10-22T05:44:00.562Z,98471.00
2022-10-22T05:46:48.020Z,98491.00
2022-10-22T05:49:35.730Z,98501.00
2022-10-22T05:52:24.441Z,98495.00
2022-10-22T05:55:11.897Z,98495.00
2022-10-22T05:57:59.322Z,98498.00
2022-10-22T06:00:46.838Z,98502.00
2022-10-22T06:03:34.388Z,98486.00
2022-10-22T06:06:38.706Z,98489.00
2022-10-22T06:12:28.636Z,98505.00
2022-10-22T06:15:20.300Z,98518.00
2022-10-22T06:18:07.701Z,98520.00
2022-10-22T06:20:55.155Z,98531.00
2022-10-22T06:23:43.781Z,98536.00
2022-10-22T06:26:32.096Z,98551.00
2022-10-22T06:29:19.716Z,98563.00
2022-10-22T06:32:07.211Z,98565.00
2022-10-22T06:34:54.656Z,98569.00
2022-10-22T06:37:42.244Z,98570.00
2022-10-22T06:40:31.061Z,98577.00
2022-10-22T06:43:18.482Z,98586.00
2022-10-22T06:46:10.096Z,98586.00
2022-10-22T06:49:04.695Z,98583.00
2022-10-22T06:51:55.740Z,98591.00
2022-10-22T06:54:43.275Z,98589.00
2022-10-22T06:57:34.306Z,98580.00
2022-10-22T07:00:22.465Z,98583.00
2022-10-22T07:03:14.238Z,98599.00
2022-10-22T07:06:05.175Z,98600.00
2022-10-22T07:08:56.392Z,98592.00
2022-10-22T07:11:46.742Z,98602.00
2022-10-22T07:14:34.286Z,98598.00
2022-10-22T07:17:21.767Z,98603.00
2022-10-22T07:20:10.222Z,98597.00
2022-10-22T07:22:57.666Z,98610.00
2022-10-22T07:25:45.399Z,98618.00
2022-10-22T07:28:33.692Z,98603.00
2022-10-22T07:31:21.166Z,98608.00
2022-10-22T07:34:09.533Z,98601.00
2022-10-22T07:36:57.327Z,98606.00
2022-10-22T07:39:46.910Z,98591.00
2022-10-22T07:42:34.437Z,98593.00
2022-10-22T07:45:22.252Z,98596.00
2022-10-22T07:48:09.647Z,98591.00
2022-10-22T07:50:58.411Z,98598.00
2022-10-22T07:53:45.977Z,98603.00
2022-10-22T07:56:33.476Z,98602.00
2022-10-22T07:59:21.030Z,98601.00
2022-10-22T08:02:11.480Z,98604.00
2022-10-22T08:04:59.376Z,98612.00
2022-10-22T08:07:46.841Z,98612.00
2022-10-22T08:10:35.179Z,98616.00
2022-10-22T08:13:23.540Z,98621.00
2022-10-22T08:16:11.085Z,98616.00
2022-10-22T08:18:58.531Z,98628.00
2022-10-22T08:21:46.265Z,98626.00
2022-10-22T08:24:34.156Z,98619.00
2022-10-22T08:27:21.636Z,98619.00
2022-10-22T08:30:10.131Z,98615.00
2022-10-22T08:32:57.522Z,98620.00
2022-10-22T08:35:50.143Z,98618.00
2022-10-22T08:38:37.655Z,98616.00
2022-10-22T08:41:26.256Z,98627.00
2022-10-22T08:44:56.882Z,98625.00
2022-10-22T08:48:10.600Z,98625.00
2022-10-22T08:50:58.567Z,98630.00
2022-10-22T08:54:26.324Z,98629.00
2022-10-22T08:57:54.436Z,98639.00
2022-10-22T09:01:10.654Z,98644.00
2022-10-22T09:04:14.688Z,98654.00
2022-10-22T09:07:02.160Z,98655.00
2022-10-22T09:09:54.876Z,98656.00
2022-10-22T09:12:42.389Z,98660.00
2022-10-22T09:15:31.553Z,98663.00
2022-10-22T09:18:24.893Z,98664.00
2022-10-22T09:21:29.215Z,98666.00
2022-10-22T09:24:33.033Z,98659.00
2022-10-22T09:27:28.602Z,98660.00
2022-10-22T09:30:25.721Z,98670.00
2022-10-22T09:33:25.364Z,98664.00
2022-10-22T09:36:23.281Z,98671.00
2022-10-22T09:39:37.046Z,98680.00
2022-10-22T09:42:25.267Z,98684.00
2022-10-22T09:45:25.850Z,98684.00
2022-10-22T09:48:28.039Z,98690.00
2022-10-22T09:51:25.770Z,98701.00
2022-10-22T09:54:42.606Z,98704.00
2022-10-22T09:57:30.306Z,98711.00
2022-10-22T10:00:20.101Z,98712.00
2022-10-22T10:03:15.638Z,98720.00
2022-10-22T10:06:06.072Z,98715.00
2022-10-22T10:08:54.158Z,98714.00
2022-10-22T10:11:56.864Z,98720.00
2022-10-22T10:15:01.385Z,98722.00
2022-10-22T10:18:06.961Z,98723.00
2022-10-22T10:21:04.211Z,98720.00
2022-10-22T10:24:13.261Z,98719.00
2022-10-22T10:27:36.030Z,98723.00
2022-10-22T10:30:24.836Z,98719.00
2022-10-22T10:33:45.306Z,98712.00
2022-10-22T10:37:12.951Z,98710.00
2022-10-22T10:40:24.831Z,98708.00
2022-10-22T10:43:40.286Z,98720.00
2022-10-22T10:47:13.294Z,98714.00
2022-10-22T10:50:48.084Z,98713.00
2022-10-22T10:54:09.700Z,98708.00
2022-10-22T10:57:21.940Z,98711.00
2022-10-22T11:00:14.150Z,98710.00
2022-10-22T11:03:59.540Z,98708.00
2022-10-22T11:06:49.293Z,98709.00
2022-10-22T11:09:50.601Z,98715.00
2022-10-22T11:12:45.930Z,98702.00
2022-10-22T11:15:41.101Z,98709.00
2022-10-22T11:18:42.137Z,98701.00
2022-10-22T11:22:22.347Z,98706.00
2022-10-22T11:25:42.777Z,98690.00
2022-10-22T11:28:44.089Z,98691.00
2022-10-22T11:31:33.045Z,98687.00
2022-10-22T11:34:44.550Z,98698.00
2022-10-22T11:37:39.200Z,98705.00
2022-10-22T11:40:32.991Z,98709.00
2022-10-22T11:43:55.592Z,98711.00
2022-10-22T11:47:14.861Z,98708.00
2022-10-22T11:50:47.290Z,98694.00
2022-10-22T11:53:39.255Z,98682.00
2022-10-22T11:56:37.351Z,98683.00
2022-10-22T11:59:47.038Z,98685.00
2022-10-22T12:02:46.066Z,98688.00
2022-10-22T12:05:35.796Z,98687.00
2022-10-22T12:08:26.883Z,98676.00
2022-10-22T12:11:34.281Z,98682.00
2022-10-22T12:14:40.875Z,98678.00
2022-10-22T12:17:31.239Z,98675.00
2022-10-22T12:20:18.951Z,98667.00
2022-10-22T12:23:08.722Z,98667.00
2022-10-22T12:25:57.235Z,98665.00
2022-10-22T12:28:44.624Z,98676.00
2022-10-22T12:31:38.562Z,98671.00
2022-10-22T12:34:26.033Z,98672.00
2022-10-22T12:37:16.181Z,98671.00
2022-10-22T12:40:21.125Z,98676.00
2022-10-22T12:43:16.969Z,98673.00
2022-10-22T12:46:04.521Z,98672.00
2022-10-22T12:48:52.092Z,98669.00
2022-10-22T12:51:39.652Z,98661.00
2022-10-22T12:54:31.098Z,98663.00
2022-10-22T12:57:21.142Z,98659.00
2022-10-22T13:00:26.535Z,98658.00
2022-10-22T13:03:34.920Z,98657.00
2022-10-22T13:06:26.478Z,98657.00
2022-10-22T13:09:25.234Z,98649.00
2022-10-22T13:12:18.875Z,98646.00
2022-10-22T13:15:28.690Z,98654.00
2022-10-22T13:18:19.406Z,98654.00
2022-10-22T13:21:29.603Z,98661.00
2022-10-22T13:24:24.345Z,98663.00
2022-10-22T13:27:11.986Z,98668.00
2022-10-22T13:30:17.104Z,98677.00
2022-10-22T13:33:39.238Z,98677.00
2022-10-22T13:36:26.844Z,98677.00
2022-10-22T13:39:20.724Z,98678.00
2022-10-22T13:42:14.220Z,98677.00
2022-10-22T13:45:01.591Z,98682.00
2022-10-22T13:47:53.720Z,98674.00
2022-10-22T13:50:41.525Z,98675.00
2022-10-22T13:53:31.249Z,98672.00
2022-10-22T13:56:21.493Z,98674.00
2022-10-22T13:59:11.065Z,98681.00
2022-10-22T14:01:58.481Z,98685.00
2022-10-22T14:04:46.565Z,98685.00
2022-10-22T14:07:34.605Z,98678.00
2022-10-22T14:10:24.886Z,98678.00
2022-10-22T14:13:15.151Z,98689.00
2022-10-22T14:16:05.967Z,98681.00
2022-10-22T14:18:55.656Z,98678.00
2022-10-22T14:21:43.205Z,98684.00
2022-10-22T14:24:30.604Z,98688.00
2022-10-22T14:27:18.156Z,98687.00
2022-10-22T14:30:06.632Z,98697.00
2022-10-22T14:32:54.196Z,98696.00
2022-10-22T14:35:41.671Z,98697.00
2022-10-22T14:38:30.065Z,98696.00
2022-10-22T14:41:24.781Z,98691.00
2022-10-22T14:44:14.528Z,98694.00
2022-10-22T14:47:02.467Z,98687.00
2022-10-22T14:49:49.929Z,98685.00
2022-10-22T14:52:37.560Z,98678.00
2022-10-22T14:55:27.103Z,98675.00
2022-10-22T14:58:15.286Z,98682.00
2022-10-22T15:01:04.383Z,98687.00
2022-10-22T15:03:52.100Z,98685.00
2022-10-22T15:06:39.606Z,98682.00
2022-10-22T15:09:27.120Z,98693.00
2022-10-22T15:12:14.675Z,98687.00
2022-10-22T15:15:02.530Z,98697.00
2022-10-22T15:17:50.050Z,98691.00
2022-10-22T15:20:37.603Z,98696.00
2022-10-22T15:23:25.900Z,98699.00
2022-10-22T15:26:14.250Z,98696.00
2022-10-22T15:29:04.812Z,98693.00
2022-10-22T15:31:57.917Z,98706.00
2022-10-22T15:34:45.450Z,98713.00
2022-10-22T15:37:33.021Z,98709.00
2022-10-22T15:40:20.469Z,98720.00
2022-10-22T15:43:07.925Z,98721.00
2022-10-22T15:46:08.595Z,98726.00
2022-10-22T15:48:56.106Z,98732.00
2022-10-22T15:51:44.556Z,98739.00
2022-10-22T15:54:33.162Z,98746.00
2022-10-22T15:57:20.601Z,98757.00
2022-10-22T16:00:09.362Z,98756.00
2022-10-22T16:02:56.889Z,98759.00
2022-10-22T16:05:54.591Z,98764.00
2022-10-22T16:08:42.071Z,98762.00
2022-10-22T16:11:31.445Z,98773.00
2022-10-22T16:14:21.535Z,98779.00
2022-10-22T16:17:09.110Z,98775.00
2022-10-22T16:19:56.493Z,98774.00
2022-10-22T16:22:44.162Z,98782.00
2022-10-22T16:25:38.005Z,98784.00
2022-10-22T16:28:25.469Z,98791.00
2022-10-22T16:31:16.598Z,98792.00
2022-10-22T16:34:04.086Z,98804.00
2022-10-22T16:36:53.676Z,98805.00
2022-10-22T16:39:41.190Z,98809.00
2022-10-22T16:42:28.627Z,98818.00
2022-10-22T16:45:17.245Z,98813.00
2022-10-22T16:48:04.895Z,98818.00
2022-10-22T16:50:52.361Z,98818.00
2022-10-22T16:53:39.919Z,98826.00
2022-10-22T16:56:27.500Z,98830.00
2022-10-22T16:59:14.915Z,98835.00
2022-10-22T17:04:49.867Z,98841.00
2022-10-22T17:07:37.330Z,98844.00
2022-10-22T17:10:24.838Z,98842.00
2022-10-22T17:13:12.275Z,98846.00
2022-10-22T17:16:10.281Z,98851.00
2022-10-22T17:18:58.437Z,98855.00
2022-10-22T17:21:46.334Z,98851.00
2022-10-22T17:24:33.771Z,98860.00
2022-10-22T17:27:21.169Z,98856.00
2022-10-22T17:30:14.851Z,98858.00
2022-10-22T17:33:02.244Z,98859.00
2022-10-22T17:35:52.659Z,98863.00
2022-10-22T17:38:42.690Z,98864.00
2022-10-22T17:41:33.710Z,98862.00
2022-10-22T17:44:21.383Z,98868.00
2022-10-22T17:47:08.816Z,98870.00
2022-10-22T17:49:56.312Z,98875.00
2022-10-22T17:52:44.114Z,98885.00
2022-10-22T17:55:31.712Z,98883.00
2022-10-22T17:58:19.123Z,98884.00
2022-10-22T18:01:07.268Z,98895.00
2022-10-22T18:04:01.000Z,98889.00
2022-10-22T18:06:49.041Z,98887.00
2022-10-22T18:09:37.381Z,98895.00
2022-10-22T18:12:24.847Z,98896.00
2022-10-22T18:15:12.245Z,98899.00
2022-10-22T18:18:00.068Z,98907.00
2022-10-22T18:20:51.786Z,98899.00
2022-10-22T18:23:39.175Z,98907.00
2022-10-22T18:26:27.186Z,98911.00
2022-10-22T18:29:18.490Z,98913.00
2022-10-22T18:32:12.134Z,98914.00
2022-10-22T18:35:00.635Z,98908.00
2022-10-22T18:37:48.100Z,98909.00
2022-10-22T18:40:36.190Z,98903.00
2022-10-22T18:43:23.652Z,98905.00
2022-10-22T18:46:11.141Z,98898.00
2022-10-22T18:48:59.484Z,98896.00
2022-10-22T18:51:53.023Z,98900.00
2022-10-22T18:54:40.740Z,98901.00
2022-10-22T18:57:28.276Z,98901.00
2022-10-22T19:00:16.446Z,98896.00
2022-10-22T19:03:04.244Z,98900.00
2022-10-22T19:05:54.872Z,98900.00
2022-10-22T19:08:46.911Z,98903.00
2022-10-22T19:11:38.281Z,98909.00
2022-10-22T19:14:25.966Z,98908.00
2022-10-22T19:17:13.401Z,98918.00
2022-10-22T19:20:00.961Z,98913.00
2022-10-22T19:22:50.275Z,98917.00
2022-10-22T19:25:37.841Z,98927.00
2022-10-22T19:28:25.296Z,98925.00
2022-10-22T19:31:22.205Z,98925.00
2022-10-22T19:34:11.285Z,98935.00
2022-10-22T19:36:59.241Z,98945.00
2022-10-22T19:39:49.441Z,98952.00
2022-10-22T19:42:38.196Z,98942.00
2022-10-22T19:45:25.670Z,98948.00
2022-10-22T19:48:13.140Z,98946.00
2022-10-22T19:51:04.281Z,98943.00
2022-10-22T19:53:58.590Z,98939.00
2022-10-22T19:56:47.850Z,98940.00
2022-10-22T19:59:36.211Z,98953.00
2022-10-22T20:02:23.687Z,98951.00
2022-10-22T20:05:11.372Z,98956.00
2022-10-22T20:07:59.711Z,98956.00
2022-10-22T20:10:49.889Z,98966.00
2022-10-22T20:16:31.015Z,98962.00
2022-10-22T20:19:18.515Z,98966.00
2022-10-22T20:22:05.988Z,98973.00
2022-10-22T20:24:54.342Z,98971.00
2022-10-22T20:27:42.645Z,98964.00
2022-10-22T20:30:30.081Z,98972.00
2022-10-22T20:33:17.576Z,98970.00
2022-10-22T20:36:12.941Z,98968.00
2022-10-22T20:39:06.234Z,98973.00
2022-10-22T20:41:53.755Z,98967.00
2022-10-22T20:44:41.370Z,98967.00
2022-10-22T20:47:44.299Z,98961.00
2022-10-22T20:50:38.836Z,98959.00
2022-10-22T20:53:28.096Z,98963.00
2022-10-22T20:56:17.756Z,98958.00
2022-10-22T20:59:10.035Z,98963.00
2022-10-22T21:01:57.435Z,98955.00
2022-10-22T21:04:46.404Z,98961.00
2022-10-22T21:07:34.000Z,98965.00
2022-10-22T21:10:21.465Z,98962.00
2022-10-22T21:13:08.895Z,98963.00
2022-10-22T21:15:56.330Z,98955.00
2022-10-22T21:18:43.884Z,98946.00
2022-10-22T21:21:31.335Z,98952.00
2022-10-22T21:24:19.235Z,98954.00
2022-10-22T21:27:07.562Z,98952.00
2022-10-22T21:29:55.019Z,98960.00
2022-10-22T21:32:43.006Z,98954.00
2022-10-22T21:35:32.445Z,98958.00
2022-10-22T21:38:22.109Z,98960.00
2022-10-22T21:41:14.183Z,98948.00
2022-10-22T21:44:01.656Z,98945.00
2022-10-22T21:46:49.090Z,98948.00
2022-10-22T21:49:36.525Z,98945.00
2022-10-22T21:52:24.200Z,98943.00
2022-10-22T21:55:11.676Z,98944.00
2022-10-22T21:57:59.087Z,98949.00
2022-10-22T22:00:55.411Z,98965.00
2022-10-22T22:03:46.145Z,98970.00
2022-10-22T22:06:35.144Z,98970.00
2022-10-22T22:09:22.799Z,98971.00
2022-10-22T22:12:10.296Z,98961.00
2022-10-22T22:14:57.728Z,98969.00
2022-10-22T22:17:45.197Z,98964.00
2022-10-22T22:20:32.656Z,98972.00
2022-10-22T22:23:20.050Z,98975.00
2022-10-22T22:26:08.965Z,98976.00
2022-10-22T22:29:00.119Z,98982.00
2022-10-22T22:31:47.535Z,98990.00
2022-10-22T22:34:34.915Z,98989.00
2022-10-22T22:37:22.366Z,98983.00
2022-10-22T22:40:10.741Z,98983.00
2022-10-22T22:42:58.216Z,98977.00
2022-10-22T22:45:45.629Z,98971.00
2022-10-22T22:48:33.960Z,98972.00
2022-10-22T22:51:21.580Z,98968.00
2022-10-22T22:54:11.049Z,98968.00
2022-10-22T22:56:58.495Z,98966.00
2022-10-22T22:59:49.225Z,98965.00
2022-10-22T23:02:36.731Z,98958.00
2022-10-22T23:05:24.190Z,98950.00
2022-10-22T23:08:11.650Z,98949.00
2022-10-22T23:11:10.266Z,98958.00
2022-10-22T23:14:02.216Z,98945.00
2022-10-22T23:16:53.105Z,98940.00
2022-10-22T23:19:40.491Z,98945.00
2022-10-22T23:22:27.930Z,98941.00
2022-10-22T23:25:15.375Z,98943.00
2022-10-22T23:28:02.850Z,98948.00
2022-10-22T23:30:50.706Z,98952.00
2022-10-22T23:33:38.100Z,98950.00
2022-10-22T23:36:25.539Z,98944.00
2022-10-22T23:39:18.715Z,98955.00
2022-10-22T23:42:06.162Z,98951.00
2022-10-22T23:44:53.570Z,98961.00
2022-10-22T23:47:41.225Z,98963.00
2022-10-22T23:50:28.999Z,98957.00
2022-10-22T23:53:16.980Z,98960.00
2022-10-22T23:56:08.026Z,98950.00
2022-10-22T23:58:57.167Z,98952.00
